Time,TemperatureF,DewpointF,PressureIn,WindDirection,WindDirectionDegrees,WindSpeedMPH,WindSpeedGustMPH,Humidity,HourlyPrecipIn,Conditions,Clouds,dailyrainin,SoftwareType,DateUTC
2013-07-24 00:01:00,59.3,56.1,30.03,East,101,3.0,0.0,89,0.00,,CLR,0.00,VWS V14.01,2013-07-24 07:01:00,
2013-07-24 00:06:00,59.2,56.0,30.03,ESE,118,2.0,0.0,89,0.00,,CLR,0.00,VWS V14.01,2013-07-24 07:06:00,
2013-07-24 00:12:00,59.1,55.9,30.03,ESE,114,3.0,0.0,89,0.00,,CLR,0.00,VWS V14.01,2013-07-24 07:12:00,
2013-07-24 00:17:00,59.0,55.8,30.03,SE,133,3.0,0.0,89,0.00,,CLR,0.00,VWS V14.01,2013-07-24 07:17:00,
2013-07-24 00:22:00,58.8,55.6,30.03,East,94,3.0,0.0,89,0.00,,CLR,0.00,VWS V14.01,2013-07-24 07:22:00,
2013-07-24 00:27:00,58.7,55.8,30.03,ESE,105,0.0,0.0,90,0.00,,CLR,0.00,VWS V14.01,2013-07-24 07:27:00,
2013-07-24 00:32:00,58.4,55.2,30.04,ESE,105,0.0,0.0,89,0.00,,CLR,0.00,VWS V14.01,2013-07-24 07:32:00,
2013-07-24 00:37:00,58.2,55.3,30.04,ESE,109,2.0,0.0,90,0.00,,CLR,0.00,VWS V14.01,2013-07-24 07:37:00,
2013-07-24 00:42:00,58.1,55.2,30.04,SE,126,0.0,0.0,90,0.00,,CLR,0.00,VWS V14.01,2013-07-24 07:42:00,
2013-07-24 00:47:00,57.9,55.0,30.04,ESE,103,1.0,0.0,90,0.00,,CLR,0.00,VWS V14.01,2013-07-24 07:47:00,
2013-07-24 00:52:00,57.9,55.3,30.04,ESE,118,3.0,0.0,91,0.00,,CLR,0.00,VWS V14.01,2013-07-24 07:52:00,
2013-07-24 00:57:00,57.8,55.2,30.04,ESE,117,0.0,0.0,91,0.00,,CLR,0.00,VWS V14.01,2013-07-24 07:57:00,
2013-07-24 01:02:00,57.6,55.0,30.04,ESE,121,2.0,0.0,91,0.00,,CLR,0.00,VWS V14.01,2013-07-24 08:02:00,
2013-07-24 01:07:00,57.5,54.9,30.04,SE,124,0.0,0.0,91,0.00,,CLR,0.00,VWS V14.01,2013-07-24 08:07:00,
2013-07-24 01:12:00,57.4,54.8,30.05,ESE,123,0.0,0.0,91,0.00,,CLR,0.00,VWS V14.01,2013-07-24 08:12:00,
2013-07-24 01:17:00,57.3,54.7,30.05,ESE,105,0.0,0.0,91,0.00,,CLR,0.00,VWS V14.01,2013-07-24 08:17:00,
2013-07-24 01:22:00,57.2,54.6,30.05,East,86,2.0,0.0,91,0.00,,CLR,0.00,VWS V14.01,2013-07-24 08:22:00,
2013-07-24 01:27:00,57.1,54.5,30.04,SE,136,0.0,0.0,91,0.00,,CLR,0.00,VWS V14.01,2013-07-24 08:27:00,
2013-07-24 01:32:00,56.9,54.3,30.04,ESE,119,0.0,0.0,91,0.00,,CLR,0.00,VWS V14.01,2013-07-24 08:32:00,
2013-07-24 01:37:00,56.7,54.4,30.04,ESE,117,0.0,0.0,92,0.00,,CLR,0.00,VWS V14.01,2013-07-24 08:37:00,
2013-07-24 01:42:00,56.6,54.3,30.04,SE,132,0.0,0.0,92,0.00,,CLR,0.00,VWS V14.01,2013-07-24 08:42:00,
2013-07-24 01:47:00,56.6,54.3,30.04,ESE,103,1.0,0.0,92,0.00,,FEW012,0.00,VWS V14.01,2013-07-24 08:47:00,
2013-07-24 01:52:00,56.7,54.4,30.04,East,89,1.0,0.0,92,0.00,,FEW012,0.00,VWS V14.01,2013-07-24 08:52:00,
2013-07-24 01:57:00,56.8,54.5,30.05,ESE,104,0.0,0.0,92,0.00,,FEW012,0.00,VWS V14.01,2013-07-24 08:57:00,
2013-07-24 02:02:00,57.0,54.7,30.04,SE,126,1.0,0.0,92,0.00,,FEW012,0.00,VWS V14.01,2013-07-24 09:02:00,
2013-07-24 02:07:00,57.0,54.7,30.04,ESE,110,3.0,0.0,92,0.00,,BKN010,0.00,VWS V14.01,2013-07-24 09:07:00,
2013-07-24 02:12:00,57.1,54.8,30.04,East,98,1.0,0.0,92,0.00,,BKN010,0.00,VWS V14.01,2013-07-24 09:12:00,
2013-07-24 02:17:00,57.2,54.6,30.04,ESE,110,1.0,0.0,91,0.00,,BKN010,0.00,VWS V14.01,2013-07-24 09:17:00,
2013-07-24 02:22:00,57.1,54.5,30.04,ESE,106,0.0,0.0,91,0.00,,BKN010,0.00,VWS V14.01,2013-07-24 09:22:00,
2013-07-24 02:27:00,57.1,54.5,30.05,ESE,107,0.0,0.0,91,0.00,,OVC010,0.00,VWS V14.01,2013-07-24 09:27:00,
2013-07-24 02:32:00,57.0,54.4,30.04,SE,130,0.0,0.0,91,0.00,,OVC010,0.00,VWS V14.01,2013-07-24 09:32:00,
2013-07-24 02:37:00,56.9,54.3,30.04,SSE,150,1.0,0.0,91,0.00,,OVC010,0.00,VWS V14.01,2013-07-24 09:37:00,
2013-07-24 02:42:00,56.9,54.3,30.04,ESE,111,3.0,0.0,91,0.00,,OVC010,0.00,VWS V14.01,2013-07-24 09:42:00,
2013-07-24 02:47:00,57.0,54.4,30.05,South,178,1.0,0.0,91,0.00,,OVC010,0.00,VWS V14.01,2013-07-24 09:47:00,
2013-07-24 02:52:00,57.0,54.4,30.04,ESE,109,0.0,0.0,91,0.00,,OVC010,0.00,VWS V14.01,2013-07-24 09:52:00,
2013-07-24 02:57:00,57.0,54.4,30.05,ESE,104,1.0,0.0,91,0.00,,OVC010,0.00,VWS V14.01,2013-07-24 09:57:00,
2013-07-24 03:02:00,57.1,54.5,30.05,SE,141,0.0,0.0,91,0.00,,OVC010,0.00,VWS V14.01,2013-07-24 10:02:00,
2013-07-24 03:07:00,57.1,54.5,30.05,ESE,105,0.0,0.0,91,0.00,,OVC010,0.00,VWS V14.01,2013-07-24 10:07:00,
2013-07-24 03:12:00,57.1,54.5,30.05,ESE,115,1.0,0.0,91,0.00,,OVC010,0.00,VWS V14.01,2013-07-24 10:12:00,
2013-07-24 03:17:00,57.1,54.5,30.05,ESE,113,0.0,0.0,91,0.00,,OVC010,0.00,VWS V14.01,2013-07-24 10:17:00,
2013-07-24 03:22:00,57.2,54.6,30.05,SE,142,1.0,0.0,91,0.00,,OVC010,0.00,VWS V14.01,2013-07-24 10:22:00,
2013-07-24 03:27:00,57.2,54.6,30.05,East,100,1.0,0.0,91,0.00,,OVC010,0.00,VWS V14.01,2013-07-24 10:27:00,
2013-07-24 03:32:00,57.2,54.3,30.05,East,96,0.0,0.0,90,0.00,,OVC010,0.00,VWS V14.01,2013-07-24 10:32:00,
2013-07-24 03:37:00,57.1,54.2,30.05,ESE,107,1.0,0.0,90,0.00,,OVC010,0.00,VWS V14.01,2013-07-24 10:37:00,
2013-07-24 03:42:00,57.1,54.2,30.05,East,99,1.0,0.0,90,0.00,,OVC010,0.00,VWS V14.01,2013-07-24 10:42:00,
2013-07-24 03:47:00,57.0,54.1,30.05,ESE,107,2.0,0.0,90,0.00,,OVC010,0.00,VWS V14.01,2013-07-24 10:47:00,
2013-07-24 03:52:00,57.0,54.1,30.05,East,99,0.0,0.0,90,0.00,,OVC010,0.00,VWS V14.01,2013-07-24 10:52:00,
2013-07-24 03:57:00,56.9,54.0,30.05,ESE,107,0.0,0.0,90,0.00,,OVC010,0.00,VWS V14.01,2013-07-24 10:57:00,
2013-07-24 04:02:00,56.8,53.9,30.05,ESE,106,1.0,0.0,90,0.00,,OVC010,0.00,VWS V14.01,2013-07-24 11:02:00,
2013-07-24 04:07:00,56.8,53.9,30.05,ESE,111,0.0,0.0,90,0.00,,OVC010,0.00,VWS V14.01,2013-07-24 11:07:00,
2013-07-24 04:12:00,56.7,53.8,30.05,ESE,114,1.0,0.0,90,0.00,,OVC010,0.00,VWS V14.01,2013-07-24 11:12:00,
2013-07-24 04:17:00,56.6,53.7,30.05,ESE,105,2.0,0.0,90,0.00,,OVC010,0.00,VWS V14.01,2013-07-24 11:17:00,
2013-07-24 04:22:00,56.6,53.7,30.05,ESE,117,1.0,0.0,90,0.00,,OVC010,0.00,VWS V14.01,2013-07-24 11:22:00,
2013-07-24 04:27:00,56.6,53.7,30.05,East,101,0.0,0.0,90,0.00,,OVC010,0.00,VWS V14.01,2013-07-24 11:27:00,
2013-07-24 04:32:00,56.7,53.8,30.05,East,94,2.0,0.0,90,0.00,,OVC010,0.00,VWS V14.01,2013-07-24 11:32:00,
2013-07-24 04:37:00,56.7,53.8,30.05,ESE,106,0.0,0.0,90,0.00,,OVC010,0.00,VWS V14.01,2013-07-24 11:37:00,
2013-07-24 04:42:00,56.7,53.8,30.05,ESE,111,1.0,0.0,90,0.00,,OVC010,0.00,VWS V14.01,2013-07-24 11:42:00,
2013-07-24 04:47:00,56.7,53.8,30.05,East,96,2.0,0.0,90,0.00,,OVC010,0.00,VWS V14.01,2013-07-24 11:47:00,
2013-07-24 04:52:00,56.7,53.8,30.05,ESE,113,0.0,0.0,90,0.00,,OVC010,0.00,VWS V14.01,2013-07-24 11:52:00,
2013-07-24 04:57:00,56.7,53.8,30.05,SE,125,2.0,0.0,90,0.00,,OVC010,0.00,VWS V14.01,2013-07-24 11:57:00,
2013-07-24 05:02:00,56.6,53.7,30.05,East,94,1.0,0.0,90,0.00,,OVC010,0.00,VWS V14.01,2013-07-24 12:02:00,
2013-07-24 05:07:00,56.6,53.7,30.05,ESE,121,2.0,0.0,90,0.00,,OVC010,0.00,VWS V14.01,2013-07-24 12:07:00,
2013-07-24 05:12:00,56.5,53.6,30.05,East,84,0.0,0.0,90,0.00,,OVC010,0.00,VWS V14.01,2013-07-24 12:12:00,
2013-07-24 05:17:00,56.5,53.6,30.05,East,88,0.0,0.0,90,0.00,,OVC010,0.00,VWS V14.01,2013-07-24 12:17:00,
2013-07-24 05:22:00,56.4,53.5,30.05,ESE,111,0.0,0.0,90,0.00,,OVC010,0.00,VWS V14.01,2013-07-24 12:22:00,
2013-07-24 05:27:00,56.3,53.4,30.05,ESE,105,1.0,0.0,90,0.00,,OVC010,0.00,VWS V14.01,2013-07-24 12:27:00,
2013-07-24 05:32:00,56.2,53.3,30.05,East,99,0.0,0.0,90,0.00,,OVC010,0.00,VWS V14.01,2013-07-24 12:32:00,
2013-07-24 05:37:00,56.2,53.3,30.05,ESE,103,0.0,0.0,90,0.00,,OVC010,0.00,VWS V14.01,2013-07-24 12:37:00,
2013-07-24 05:42:00,56.1,53.2,30.05,ESE,105,0.0,0.0,90,0.00,,OVC010,0.00,VWS V14.01,2013-07-24 12:42:00,
2013-07-24 05:47:00,56.1,53.2,30.05,ESE,110,2.0,0.0,90,0.00,,OVC010,0.00,VWS V14.01,2013-07-24 12:47:00,
2013-07-24 05:52:00,56.0,53.1,30.05,ESE,104,1.0,0.0,90,0.00,,OVC010,0.00,VWS V14.01,2013-07-24 12:52:00,
2013-07-24 05:57:00,55.9,53.0,30.06,ESE,109,0.0,0.0,90,0.00,,OVC010,0.00,VWS V14.01,2013-07-24 12:57:00,
2013-07-24 06:02:00,55.8,52.9,30.06,East,99,2.0,0.0,90,0.00,,OVC010,0.00,VWS V14.01,2013-07-24 13:02:00,
2013-07-24 06:07:00,55.6,52.7,30.06,ENE,69,3.0,0.0,90,0.00,,OVC010,0.00,VWS V14.01,2013-07-24 13:07:00,
2013-07-24 06:12:00,55.5,52.6,30.06,ESE,104,3.0,0.0,90,0.00,,OVC010,0.00,VWS V14.01,2013-07-24 13:12:00,
2013-07-24 06:17:00,55.4,52.8,30.06,ESE,107,1.0,0.0,91,0.00,,OVC010,0.00,VWS V14.01,2013-07-24 13:17:00,
2013-07-24 06:22:00,55.4,52.8,30.06,ESE,107,0.0,0.0,91,0.00,,OVC010,0.00,VWS V14.01,2013-07-24 13:22:00,
2013-07-24 06:27:00,55.4,52.8,30.06,ESE,116,4.0,0.0,91,0.00,,OVC010,0.00,VWS V14.01,2013-07-24 13:27:00,
2013-07-24 06:32:00,55.4,52.8,30.06,ESE,105,1.0,0.0,91,0.00,,OVC010,0.00,VWS V14.01,2013-07-24 13:32:00,
2013-07-24 06:37:00,55.4,52.8,30.06,East,96,3.0,0.0,91,0.00,,OVC010,0.00,VWS V14.01,2013-07-24 13:37:00,
2013-07-24 06:42:00,55.5,52.9,30.07,East,96,2.0,0.0,91,0.00,,OVC010,0.00,VWS V14.01,2013-07-24 13:42:00,
2013-07-24 06:47:00,55.5,52.9,30.07,ESE,105,0.0,0.0,91,0.00,,OVC010,0.00,VWS V14.01,2013-07-24 13:47:00,
2013-07-24 06:52:00,55.5,52.9,30.07,ESE,106,3.0,0.0,91,0.00,,OVC010,0.00,VWS V14.01,2013-07-24 13:52:00,
2013-07-24 06:57:00,55.6,52.7,30.07,ESE,115,0.0,0.0,90,0.00,,OVC010,0.00,VWS V14.01,2013-07-24 13:57:00,
2013-07-24 07:02:00,55.8,52.9,30.07,ESE,105,0.0,0.0,90,0.00,,OVC010,0.00,VWS V14.01,2013-07-24 14:02:00,
2013-07-24 07:07:00,55.9,53.0,30.07,East,100,1.0,0.0,90,0.00,,OVC010,0.00,VWS V14.01,2013-07-24 14:07:00,
2013-07-24 07:12:00,56.0,53.1,30.07,SE,131,0.0,0.0,90,0.00,,OVC010,0.00,VWS V14.01,2013-07-24 14:12:00,
2013-07-24 07:17:00,56.0,53.1,30.07,ESE,116,0.0,0.0,90,0.00,,OVC010,0.00,VWS V14.01,2013-07-24 14:17:00,
2013-07-24 07:22:00,56.2,53.3,30.07,SE,139,0.0,0.0,90,0.00,,OVC010,0.00,VWS V14.01,2013-07-24 14:22:00,
2013-07-24 07:27:00,56.2,53.3,30.07,ESE,123,3.0,0.0,90,0.00,,OVC010,0.00,VWS V14.01,2013-07-24 14:27:00,
2013-07-24 07:32:00,56.3,53.1,30.07,South,179,0.0,0.0,89,0.00,,OVC010,0.00,VWS V14.01,2013-07-24 14:32:00,
2013-07-24 07:37:00,56.4,53.2,30.07,ESE,108,0.0,0.0,89,0.00,,OVC010,0.00,VWS V14.01,2013-07-24 14:37:00,
2013-07-24 07:42:00,56.6,53.4,30.07,ESE,121,1.0,0.0,89,0.00,,OVC010,0.00,VWS V14.01,2013-07-24 14:42:00,
2013-07-24 07:47:00,56.5,53.3,30.07,ESE,116,1.0,0.0,89,0.00,,OVC010,0.00,VWS V14.01,2013-07-24 14:47:00,
2013-07-24 07:52:00,56.5,53.3,30.07,SE,141,1.0,0.0,89,0.00,,OVC010,0.00,VWS V14.01,2013-07-24 14:52:00,
2013-07-24 07:57:00,56.8,53.6,30.07,NE,53,2.0,0.0,89,0.00,,OVC010,0.00,VWS V14.01,2013-07-24 14:57:00,
2013-07-24 08:02:00,56.7,53.2,30.07,ESE,122,3.0,0.0,88,0.00,,OVC010,0.00,VWS V14.01,2013-07-24 15:02:00,
2013-07-24 08:07:00,56.6,53.1,30.07,ESE,111,6.0,0.0,88,0.00,,OVC010,0.00,VWS V14.01,2013-07-24 15:07:00,
2013-07-24 08:12:00,56.7,53.5,30.07,ESE,106,4.0,0.0,89,0.00,,OVC010,0.00,VWS V14.01,2013-07-24 15:12:00,
2013-07-24 08:17:00,56.8,53.3,30.07,ESE,107,2.0,0.0,88,0.00,,OVC010,0.00,VWS V14.01,2013-07-24 15:17:00,
2013-07-24 08:22:00,57.0,53.5,30.07,ESE,122,2.0,0.0,88,0.00,,OVC010,0.00,VWS V14.01,2013-07-24 15:22:00,
2013-07-24 08:27:00,57.2,53.7,30.08,East,82,5.0,0.0,88,0.00,,OVC010,0.00,VWS V14.01,2013-07-24 15:27:00,
2013-07-24 08:32:00,57.3,53.8,30.08,SE,141,1.0,0.0,88,0.00,,OVC010,0.00,VWS V14.01,2013-07-24 15:32:00,
2013-07-24 08:37:00,57.6,54.1,30.08,SSE,150,0.0,0.0,88,0.00,,OVC010,0.00,VWS V14.01,2013-07-24 15:37:00,
2013-07-24 08:42:00,57.8,54.0,30.08,ESE,104,1.0,0.0,87,0.00,,OVC010,0.00,VWS V14.01,2013-07-24 15:42:00,
2013-07-24 08:47:00,57.9,54.1,30.08,ENE,76,6.0,0.0,87,0.00,,OVC010,0.00,VWS V14.01,2013-07-24 15:47:00,
2013-07-24 08:52:00,58.1,53.9,30.08,East,98,0.0,0.0,86,0.00,,OVC010,0.00,VWS V14.01,2013-07-24 15:52:00,
2013-07-24 08:57:00,58.2,54.0,30.07,SW,225,0.0,0.0,86,0.00,,OVC010,0.00,VWS V14.01,2013-07-24 15:57:00,
2013-07-24 09:02:00,58.5,54.3,30.08,East,80,1.0,0.0,86,0.00,,OVC010,0.00,VWS V14.01,2013-07-24 16:02:00,
2013-07-24 09:07:00,58.8,54.3,30.08,ENE,64,2.0,0.0,85,0.00,,OVC010,0.00,VWS V14.01,2013-07-24 16:07:00,
2013-07-24 09:12:00,59.1,54.6,30.08,ENE,78,4.0,0.0,85,0.00,,OVC010,0.00,VWS V14.01,2013-07-24 16:12:00,
2013-07-24 09:17:00,59.6,54.8,30.08,ESE,111,3.0,0.0,84,0.00,,OVC010,0.00,VWS V14.01,2013-07-24 16:17:00,
2013-07-24 09:22:00,60.5,56.0,30.07,ESE,116,0.0,0.0,85,0.00,,OVC010,0.00,VWS V14.01,2013-07-24 16:22:00,
2013-07-24 09:27:00,61.4,56.2,30.08,ESE,110,0.0,0.0,83,0.00,,OVC010,0.00,VWS V14.01,2013-07-24 16:27:00,
2013-07-24 09:32:00,61.9,56.0,30.07,ESE,105,0.0,0.0,81,0.00,,OVC010,0.00,VWS V14.01,2013-07-24 16:32:00,
2013-07-24 09:37:00,61.7,55.5,30.07,ESE,116,6.0,0.0,80,0.00,,OVC010,0.00,VWS V14.01,2013-07-24 16:37:00,
2013-07-24 09:42:00,61.3,55.4,30.07,ESE,113,1.0,0.0,81,0.00,,OVC010,0.00,VWS V14.01,2013-07-24 16:42:00,
2013-07-24 09:47:00,61.5,55.6,30.07,ESE,123,2.0,0.0,81,0.00,,OVC012,0.00,VWS V14.01,2013-07-24 16:47:00,
2013-07-24 09:52:00,61.7,55.8,30.07,East,101,2.0,0.0,81,0.00,,OVC012,0.00,VWS V14.01,2013-07-24 16:52:00,
2013-07-24 09:57:00,61.9,56.3,30.07,ESE,107,1.0,0.0,82,0.00,,OVC012,0.00,VWS V14.01,2013-07-24 16:57:00,
2013-07-24 10:02:00,62.1,55.9,30.07,ESE,106,4.0,0.0,80,0.00,,OVC012,0.00,VWS V14.01,2013-07-24 17:02:00,
2013-07-24 10:07:00,62.1,55.9,30.07,ESE,113,4.0,0.0,80,0.00,,OVC014,0.00,VWS V14.01,2013-07-24 17:07:00,
2013-07-24 10:12:00,62.1,55.9,30.07,ENE,58,3.0,0.0,80,0.00,,OVC014,0.00,VWS V14.01,2013-07-24 17:12:00,
2013-07-24 10:17:00,62.6,56.7,30.07,ESE,110,4.0,0.0,81,0.00,,OVC014,0.00,VWS V14.01,2013-07-24 17:17:00,
2013-07-24 10:22:00,62.8,56.5,30.07,East,92,2.0,0.0,80,0.00,,OVC014,0.00,VWS V14.01,2013-07-24 17:22:00,
2013-07-24 10:27:00,63.5,56.9,30.07,SE,125,3.0,0.0,79,0.00,,OVC016,0.00,VWS V14.01,2013-07-24 17:27:00,
2013-07-24 10:32:00,63.6,57.0,30.07,ESE,108,5.0,0.0,79,0.00,,OVC016,0.00,VWS V14.01,2013-07-24 17:32:00,
2013-07-24 10:37:00,64.2,57.2,30.07,ESE,107,3.0,0.0,78,0.00,,OVC016,0.00,VWS V14.01,2013-07-24 17:37:00,
2013-07-24 10:42:00,64.1,56.8,30.07,SE,125,4.0,0.0,77,0.00,,OVC016,0.00,VWS V14.01,2013-07-24 17:42:00,
2013-07-24 10:47:00,64.1,57.1,30.06,ESE,118,2.0,0.0,78,0.00,,BKN018,0.00,VWS V14.01,2013-07-24 17:47:00,
2013-07-24 10:52:00,64.9,57.5,30.06,SSE,160,0.0,0.0,77,0.00,,BKN018,0.00,VWS V14.01,2013-07-24 17:52:00,
2013-07-24 10:57:00,65.6,57.8,30.06,ESE,109,3.0,0.0,76,0.00,,BKN018,0.00,VWS V14.01,2013-07-24 17:57:00,
2013-07-24 11:02:00,65.8,57.7,30.06,ESE,109,3.0,0.0,75,0.00,,BKN018,0.00,VWS V14.01,2013-07-24 18:02:00,
2013-07-24 11:07:00,65.3,57.5,30.06,ENE,61,4.0,0.0,76,0.00,,SCT018,0.00,VWS V14.01,2013-07-24 18:07:00,
2013-07-24 11:12:00,65.6,57.5,30.06,ENE,76,6.0,0.0,75,0.00,,SCT018,0.00,VWS V14.01,2013-07-24 18:12:00,
2013-07-24 11:17:00,65.6,57.5,30.06,ESE,123,3.0,0.0,75,0.00,,SCT018,0.00,VWS V14.01,2013-07-24 18:17:00,
2013-07-24 11:22:00,65.4,57.3,30.06,East,90,7.0,0.0,75,0.00,,SCT018,0.00,VWS V14.01,2013-07-24 18:22:00,
2013-07-24 11:27:00,65.9,57.4,30.06,ENE,70,3.0,0.0,74,0.00,,CLR,0.00,VWS V14.01,2013-07-24 18:27:00,
2013-07-24 11:32:00,65.8,57.7,30.06,ESE,102,6.0,0.0,75,0.00,,CLR,0.00,VWS V14.01,2013-07-24 18:32:00,
2013-07-24 11:37:00,66.2,58.4,30.06,ESE,109,3.0,0.0,76,0.00,,CLR,0.00,VWS V14.01,2013-07-24 18:37:00,
2013-07-24 11:42:00,66.8,57.5,30.06,ESE,113,7.0,0.0,72,0.00,,CLR,0.00,VWS V14.01,2013-07-24 18:42:00,
2013-07-24 11:47:00,67.0,58.8,30.06,ESE,113,9.0,0.0,75,0.00,,CLR,0.00,VWS V14.01,2013-07-24 18:47:00,
2013-07-24 11:52:00,67.2,58.3,30.06,ESE,111,4.0,0.0,73,0.00,,CLR,0.00,VWS V14.01,2013-07-24 18:52:00,
2013-07-24 11:57:00,67.5,58.5,30.06,ENE,78,2.0,0.0,73,0.00,,CLR,0.00,VWS V14.01,2013-07-24 18:57:00,
2013-07-24 12:02:00,67.8,58.5,30.06,ESE,107,0.0,0.0,72,0.00,,CLR,0.00,VWS V14.01,2013-07-24 19:02:00,
2013-07-24 12:07:00,68.3,60.1,30.05,East,90,1.0,0.0,75,0.00,,CLR,0.00,VWS V14.01,2013-07-24 19:07:00,
2013-07-24 12:12:00,68.4,59.4,30.05,ESE,117,3.0,0.0,73,0.00,,CLR,0.00,VWS V14.01,2013-07-24 19:12:00,
2013-07-24 12:17:00,69.3,59.5,30.05,ESE,103,3.0,0.0,71,0.00,,CLR,0.00,VWS V14.01,2013-07-24 19:17:00,
2013-07-24 12:22:00,69.5,59.3,30.06,East,101,5.0,0.0,70,0.00,,CLR,0.00,VWS V14.01,2013-07-24 19:22:00,
2013-07-24 12:27:00,69.4,59.2,30.05,East,101,4.0,0.0,70,0.00,,CLR,0.00,VWS V14.01,2013-07-24 19:27:00,
2013-07-24 12:32:00,69.9,60.1,30.05,East,86,3.0,0.0,71,0.00,,CLR,0.00,VWS V14.01,2013-07-24 19:32:00,
2013-07-24 12:37:00,70.3,60.9,30.04,ESE,106,2.0,0.0,72,0.00,,CLR,0.00,VWS V14.01,2013-07-24 19:37:00,
2013-07-24 12:42:00,70.7,60.5,30.04,ESE,105,5.0,0.0,70,0.00,,CLR,0.00,VWS V14.01,2013-07-24 19:42:00,
2013-07-24 12:47:00,70.7,60.5,30.04,East,80,2.0,0.0,70,0.00,,CLR,0.00,VWS V14.01,2013-07-24 19:47:00,
2013-07-24 12:52:00,71.3,61.4,30.04,ESE,102,2.0,0.0,71,0.00,,CLR,0.00,VWS V14.01,2013-07-24 19:52:00,
2013-07-24 12:57:00,71.2,60.1,30.04,ENE,70,3.0,0.0,68,0.00,,CLR,0.00,VWS V14.01,2013-07-24 19:57:00,
2013-07-24 13:02:00,71.1,60.0,30.04,ESE,102,8.0,0.0,68,0.00,,CLR,0.00,VWS V14.01,2013-07-24 20:02:00,
2013-07-24 13:07:00,71.3,60.2,30.04,SE,137,1.0,0.0,68,0.00,,CLR,0.00,VWS V14.01,2013-07-24 20:07:00,
2013-07-24 13:12:00,71.7,61.0,30.03,East,95,2.0,0.0,69,0.00,,CLR,0.00,VWS V14.01,2013-07-24 20:12:00,
2013-07-24 13:17:00,72.2,62.3,30.03,ESE,109,2.0,0.0,71,0.00,,CLR,0.00,VWS V14.01,2013-07-24 20:17:00,
2013-07-24 13:22:00,72.5,60.9,30.03,ESE,115,5.0,0.0,67,0.00,,CLR,0.00,VWS V14.01,2013-07-24 20:22:00,
2013-07-24 13:27:00,72.5,62.2,30.03,ESE,114,4.0,0.0,70,0.00,,CLR,0.00,VWS V14.01,2013-07-24 20:27:00,
2013-07-24 13:32:00,73.5,61.9,30.03,NE,46,5.0,0.0,67,0.00,,CLR,0.00,VWS V14.01,2013-07-24 20:32:00,
2013-07-24 13:37:00,73.9,62.3,30.03,East,87,3.0,0.0,67,0.00,,CLR,0.00,VWS V14.01,2013-07-24 20:37:00,
2013-07-24 13:42:00,73.9,61.8,30.02,SE,129,1.0,0.0,66,0.00,,CLR,0.00,VWS V14.01,2013-07-24 20:42:00,
2013-07-24 13:47:00,74.6,62.5,30.02,ESE,102,2.0,0.0,66,0.00,,CLR,0.00,VWS V14.01,2013-07-24 20:47:00,
2013-07-24 13:52:00,74.8,62.3,30.02,ESE,103,7.0,0.0,65,0.00,,CLR,0.00,VWS V14.01,2013-07-24 20:52:00,
2013-07-24 13:57:00,74.7,62.2,30.02,ESE,111,5.0,0.0,65,0.00,,CLR,0.00,VWS V14.01,2013-07-24 20:57:00,
2013-07-24 14:02:00,75.3,62.7,30.01,NE,47,1.0,0.0,65,0.00,,CLR,0.00,VWS V14.01,2013-07-24 21:02:00,
2013-07-24 14:07:00,76.0,62.5,30.01,ESE,107,3.0,0.0,63,0.00,,CLR,0.00,VWS V14.01,2013-07-24 21:07:00,
2013-07-24 14:12:00,75.6,62.1,30.01,ESE,110,3.0,0.0,63,0.00,,CLR,0.00,VWS V14.01,2013-07-24 21:12:00,
2013-07-24 14:17:00,75.5,62.5,30.01,SSE,153,6.0,0.0,64,0.00,,CLR,0.00,VWS V14.01,2013-07-24 21:17:00,
2013-07-24 14:22:00,75.9,62.9,30.01,ESE,114,2.0,0.0,64,0.00,,CLR,0.00,VWS V14.01,2013-07-24 21:22:00,
2013-07-24 14:27:00,76.9,63.8,30.01,ESE,121,5.0,0.0,64,0.00,,CLR,0.00,VWS V14.01,2013-07-24 21:27:00,
2013-07-24 14:32:00,77.1,62.6,30.01,ESE,105,6.0,0.0,61,0.00,,CLR,0.00,VWS V14.01,2013-07-24 21:32:00,
2013-07-24 14:37:00,76.7,63.2,30.01,SE,132,2.0,0.0,63,0.00,,CLR,0.00,VWS V14.01,2013-07-24 21:37:00,
2013-07-24 14:42:00,76.8,62.8,30.01,SE,129,3.0,0.0,62,0.00,,CLR,0.00,VWS V14.01,2013-07-24 21:42:00,
2013-07-24 14:47:00,76.6,62.6,30.01,East,100,1.0,0.0,62,0.00,,CLR,0.00,VWS V14.01,2013-07-24 21:47:00,
2013-07-24 14:52:00,76.8,62.8,30.01,ESE,110,0.0,0.0,62,0.00,,CLR,0.00,VWS V14.01,2013-07-24 21:52:00,
2013-07-24 14:57:00,76.8,63.3,30.01,ESE,114,5.0,0.0,63,0.00,,CLR,0.00,VWS V14.01,2013-07-24 21:57:00,
2013-07-24 15:02:00,76.0,62.5,30.00,ESE,110,4.0,0.0,63,0.00,,CLR,0.00,VWS V14.01,2013-07-24 22:02:00,
2013-07-24 15:07:00,75.7,62.2,30.00,ESE,113,2.0,0.0,63,0.00,,CLR,0.00,VWS V14.01,2013-07-24 22:07:00,
2013-07-24 15:12:00,75.9,62.4,30.00,ESE,114,4.0,0.0,63,0.00,,CLR,0.00,VWS V14.01,2013-07-24 22:12:00,
2013-07-24 15:17:00,76.6,63.5,30.00,East,101,3.0,0.0,64,0.00,,CLR,0.00,VWS V14.01,2013-07-24 22:17:00,
2013-07-24 15:22:00,77.5,63.5,30.00,East,97,4.0,0.0,62,0.00,,CLR,0.00,VWS V14.01,2013-07-24 22:22:00,
2013-07-24 15:27:00,78.1,64.0,29.99,SE,131,2.0,0.0,62,0.00,,CLR,0.00,VWS V14.01,2013-07-24 22:27:00,
2013-07-24 15:32:00,78.8,63.8,29.99,ESE,110,4.0,0.0,60,0.00,,CLR,0.00,VWS V14.01,2013-07-24 22:32:00,
2013-07-24 15:37:00,79.0,64.9,29.99,ENE,69,6.0,0.0,62,0.00,,CLR,0.00,VWS V14.01,2013-07-24 22:37:00,
2013-07-24 15:42:00,79.0,63.9,29.99,ESE,107,6.0,0.0,60,0.00,,CLR,0.00,VWS V14.01,2013-07-24 22:42:00,
2013-07-24 15:47:00,79.4,63.8,29.99,ENE,59,3.0,0.0,59,0.00,,CLR,0.00,VWS V14.01,2013-07-24 22:47:00,
2013-07-24 15:52:00,79.3,63.7,29.99,ENE,60,5.0,0.0,59,0.00,,CLR,0.00,VWS V14.01,2013-07-24 22:52:00,
2013-07-24 15:57:00,79.4,63.8,29.99,East,84,5.0,0.0,59,0.00,,CLR,0.00,VWS V14.01,2013-07-24 22:57:00,
2013-07-24 16:02:00,79.7,64.1,29.99,ESE,107,3.0,0.0,59,0.00,,CLR,0.00,VWS V14.01,2013-07-24 23:02:00,
2013-07-24 16:07:00,79.9,63.8,29.99,ESE,105,3.0,0.0,58,0.00,,CLR,0.00,VWS V14.01,2013-07-24 23:07:00,
2013-07-24 16:12:00,80.3,64.2,29.98,East,100,2.0,0.0,58,0.00,,CLR,0.00,VWS V14.01,2013-07-24 23:12:00,
2013-07-24 16:17:00,80.5,64.4,29.98,ESE,110,5.0,0.0,58,0.00,,CLR,0.00,VWS V14.01,2013-07-24 23:17:00,
2013-07-24 16:22:00,80.7,64.1,29.98,ESE,111,9.0,0.0,57,0.00,,CLR,0.00,VWS V14.01,2013-07-24 23:22:00,
2013-07-24 16:27:00,80.7,64.1,29.98,ENE,70,4.0,0.0,57,0.00,,CLR,0.00,VWS V14.01,2013-07-24 23:27:00,
2013-07-24 16:32:00,80.8,64.7,29.98,East,94,2.0,0.0,58,0.00,,CLR,0.00,VWS V14.01,2013-07-24 23:32:00,
2013-07-24 16:37:00,80.9,64.2,29.98,ESE,104,11.0,0.0,57,0.00,,CLR,0.00,VWS V14.01,2013-07-24 23:37:00,
2013-07-24 16:42:00,80.7,64.1,29.98,ESE,117,3.0,0.0,57,0.00,,CLR,0.00,VWS V14.01,2013-07-24 23:42:00,
2013-07-24 16:47:00,81.1,65.4,29.98,East,98,3.0,0.0,59,0.00,,CLR,0.00,VWS V14.01,2013-07-24 23:47:00,
2013-07-24 16:52:00,81.0,64.3,29.98,ESE,102,9.0,0.0,57,0.00,,CLR,0.00,VWS V14.01,2013-07-24 23:52:00,
2013-07-24 16:57:00,80.7,64.6,29.98,ESE,107,10.0,0.0,58,0.00,,CLR,0.00,VWS V14.01,2013-07-24 23:57:00,
2013-07-24 17:02:00,80.9,64.2,29.97,East,83,4.0,0.0,57,0.00,,CLR,0.00,VWS V14.01,2013-07-25 00:02:00,
2013-07-24 17:07:00,80.9,64.2,29.97,SE,125,3.0,0.0,57,0.00,,CLR,0.00,VWS V14.01,2013-07-25 00:07:00,
2013-07-24 17:12:00,80.7,65.1,29.97,ESE,113,3.0,0.0,59,0.00,,CLR,0.00,VWS V14.01,2013-07-25 00:12:00,
2013-07-24 17:17:00,80.6,65.0,29.97,SE,125,5.0,0.0,59,0.00,,CLR,0.00,VWS V14.01,2013-07-25 00:17:00,
2013-07-24 17:22:00,80.5,65.8,29.97,ESE,107,3.0,0.0,61,0.00,,CLR,0.00,VWS V14.01,2013-07-25 00:22:00,
2013-07-24 17:27:00,80.3,64.7,29.98,SE,139,5.0,0.0,59,0.00,,CLR,0.00,VWS V14.01,2013-07-25 00:27:00,
2013-07-24 17:32:00,80.1,64.5,29.98,ESE,123,7.0,0.0,59,0.00,,CLR,0.00,VWS V14.01,2013-07-25 00:32:00,
2013-07-24 17:37:00,79.7,64.6,29.97,ESE,113,2.0,0.0,60,0.00,,CLR,0.00,VWS V14.01,2013-07-25 00:37:00,
2013-07-24 17:42:00,79.5,64.4,29.97,East,98,5.0,0.0,60,0.00,,CLR,0.00,VWS V14.01,2013-07-25 00:42:00,
2013-07-24 17:47:00,79.2,64.1,29.98,ESE,113,9.0,0.0,60,0.00,,CLR,0.00,VWS V14.01,2013-07-25 00:47:00,
2013-07-24 17:52:00,79.3,64.2,29.97,SE,130,7.0,0.0,60,0.00,,CLR,0.00,VWS V14.01,2013-07-25 00:52:00,
2013-07-24 17:57:00,79.1,64.0,29.97,ESE,120,6.0,0.0,60,0.00,,CLR,0.00,VWS V14.01,2013-07-25 00:57:00,
2013-07-24 18:02:00,78.8,63.8,29.97,ESE,121,9.0,0.0,60,0.00,,CLR,0.00,VWS V14.01,2013-07-25 01:02:00,
2013-07-24 18:07:00,78.3,63.8,29.97,ESE,117,14.0,0.0,61,0.00,,CLR,0.00,VWS V14.01,2013-07-25 01:07:00,
2013-07-24 18:12:00,78.1,63.6,29.97,ESE,117,11.0,0.0,61,0.00,,CLR,0.00,VWS V14.01,2013-07-25 01:12:00,
2013-07-24 18:17:00,77.7,63.7,29.98,SE,128,4.0,0.0,62,0.00,,CLR,0.00,VWS V14.01,2013-07-25 01:17:00,
2013-07-24 18:22:00,77.7,63.7,29.97,ESE,105,9.0,0.0,62,0.00,,CLR,0.00,VWS V14.01,2013-07-25 01:22:00,
2013-07-24 18:27:00,77.5,63.5,29.98,SE,130,5.0,0.0,62,0.00,,CLR,0.00,VWS V14.01,2013-07-25 01:27:00,
2013-07-24 18:32:00,77.5,63.9,29.98,ESE,115,4.0,0.0,63,0.00,,CLR,0.00,VWS V14.01,2013-07-25 01:32:00,
2013-07-24 18:37:00,77.3,63.3,29.98,ENE,73,5.0,0.0,62,0.00,,CLR,0.00,VWS V14.01,2013-07-25 01:37:00,
2013-07-24 18:42:00,77.3,63.7,29.98,East,100,1.0,0.0,63,0.00,,CLR,0.00,VWS V14.01,2013-07-25 01:42:00,
2013-07-24 18:47:00,77.0,63.0,29.98,ESE,123,2.0,0.0,62,0.00,,CLR,0.00,VWS V14.01,2013-07-25 01:47:00,
2013-07-24 18:52:00,76.6,62.6,29.98,ESE,122,2.0,0.0,62,0.00,,CLR,0.00,VWS V14.01,2013-07-25 01:52:00,
2013-07-24 18:57:00,76.2,62.7,29.98,SE,146,2.0,0.0,63,0.00,,CLR,0.00,VWS V14.01,2013-07-25 01:57:00,
2013-07-24 19:02:00,75.5,62.5,29.99,East,94,6.0,0.0,64,0.00,,CLR,0.00,VWS V14.01,2013-07-25 02:02:00,
2013-07-24 19:07:00,75.2,62.6,29.99,ESE,115,4.0,0.0,65,0.00,,CLR,0.00,VWS V14.01,2013-07-25 02:07:00,
2013-07-24 19:12:00,74.9,62.3,29.99,East,101,9.0,0.0,65,0.00,,CLR,0.00,VWS V14.01,2013-07-25 02:12:00,
2013-07-24 19:17:00,74.8,62.3,29.99,ESE,108,3.0,0.0,65,0.00,,CLR,0.00,VWS V14.01,2013-07-25 02:17:00,
2013-07-24 19:22:00,74.9,62.3,29.99,SSE,149,3.0,0.0,65,0.00,,CLR,0.00,VWS V14.01,2013-07-25 02:22:00,
2013-07-24 19:27:00,74.7,62.2,29.99,East,99,3.0,0.0,65,0.00,,CLR,0.00,VWS V14.01,2013-07-25 02:27:00,
2013-07-24 19:32:00,74.0,61.9,29.99,South,169,2.0,0.0,66,0.00,,CLR,0.00,VWS V14.01,2013-07-25 02:32:00,
2013-07-24 19:37:00,73.7,61.7,29.99,ESE,113,6.0,0.0,66,0.00,,CLR,0.00,VWS V14.01,2013-07-25 02:37:00,
2013-07-24 19:42:00,73.2,62.0,29.99,ESE,109,5.0,0.0,68,0.00,,CLR,0.00,VWS V14.01,2013-07-25 02:42:00,
2013-07-24 19:47:00,72.9,61.7,29.99,ENE,58,5.0,0.0,68,0.00,,CLR,0.00,VWS V14.01,2013-07-25 02:47:00,
2013-07-24 19:52:00,72.7,62.0,29.99,SE,138,1.0,0.0,69,0.00,,CLR,0.00,VWS V14.01,2013-07-25 02:52:00,
2013-07-24 19:57:00,72.6,61.4,30.00,ESE,103,1.0,0.0,68,0.00,,CLR,0.00,VWS V14.01,2013-07-25 02:57:00,
2013-07-24 20:02:00,72.3,61.2,29.99,East,94,1.0,0.0,68,0.00,,CLR,0.00,VWS V14.01,2013-07-25 03:02:00,
2013-07-24 20:07:00,71.8,61.1,30.00,ESE,109,5.0,0.0,69,0.00,,CLR,0.00,VWS V14.01,2013-07-25 03:07:00,
2013-07-24 20:12:00,71.3,61.0,30.00,SE,128,3.0,0.0,70,0.00,,CLR,0.00,VWS V14.01,2013-07-25 03:12:00,
2013-07-24 20:17:00,71.0,61.1,30.00,ESE,105,2.0,0.0,71,0.00,,CLR,0.00,VWS V14.01,2013-07-25 03:17:00,
2013-07-24 20:22:00,70.5,60.7,30.00,ESE,114,5.0,0.0,71,0.00,,CLR,0.00,VWS V14.01,2013-07-25 03:22:00,
2013-07-24 20:28:00,69.6,60.2,30.00,East,97,2.0,0.0,72,0.00,,CLR,0.00,VWS V14.01,2013-07-25 03:28:00,
2013-07-24 20:33:00,69.0,60.4,30.00,ESE,123,0.0,0.0,74,0.00,,CLR,0.00,VWS V14.01,2013-07-25 03:33:00,
2013-07-24 20:38:00,68.5,60.3,30.00,SE,128,2.0,0.0,75,0.00,,CLR,0.00,VWS V14.01,2013-07-25 03:38:00,
2013-07-24 20:43:00,68.0,60.2,30.00,ESE,106,4.0,0.0,76,0.00,,CLR,0.00,VWS V14.01,2013-07-25 03:43:00,
2013-07-24 20:48:00,67.6,59.8,30.01,ESE,102,3.0,0.0,76,0.00,,CLR,0.00,VWS V14.01,2013-07-25 03:48:00,
2013-07-24 20:53:00,67.1,59.7,30.01,East,96,3.0,0.0,77,0.00,,CLR,0.00,VWS V14.01,2013-07-25 03:53:00,
2013-07-24 20:58:00,66.7,59.3,30.01,ESE,121,0.0,0.0,77,0.00,,CLR,0.00,VWS V14.01,2013-07-25 03:58:00,
2013-07-24 21:01:00,66.6,59.5,30.01,East,98,0.0,0.0,78,0.00,,CLR,0.00,VWS V14.01,2013-07-25 04:01:00,
2013-07-24 21:06:00,66.2,59.2,30.01,SE,141,2.0,0.0,78,0.00,,CLR,0.00,VWS V14.01,2013-07-25 04:06:00,
2013-07-24 21:11:00,65.8,59.1,30.02,ESE,122,1.0,0.0,79,0.00,,CLR,0.00,VWS V14.01,2013-07-25 04:11:00,
2013-07-24 21:17:00,65.6,58.9,30.02,SE,136,0.0,0.0,79,0.00,,CLR,0.00,VWS V14.01,2013-07-25 04:17:00,
2013-07-24 21:22:00,65.3,58.3,30.02,ESE,113,5.0,0.0,78,0.00,,CLR,0.00,VWS V14.01,2013-07-25 04:22:00,
2013-07-24 21:27:00,65.1,58.4,30.02,ESE,115,3.0,0.0,79,0.00,,CLR,0.00,VWS V14.01,2013-07-25 04:27:00,
2013-07-24 21:32:00,64.8,58.1,30.02,ESE,117,2.0,0.0,79,0.00,,CLR,0.00,VWS V14.01,2013-07-25 04:32:00,
2013-07-24 21:37:00,64.5,57.8,30.02,East,101,2.0,0.0,79,0.00,,CLR,0.00,VWS V14.01,2013-07-25 04:37:00,
2013-07-24 21:42:00,64.2,57.6,30.02,SE,126,1.0,0.0,79,0.00,,CLR,0.00,VWS V14.01,2013-07-25 04:42:00,
2013-07-24 21:47:00,63.9,57.6,30.03,East,98,0.0,0.0,80,0.00,,CLR,0.00,VWS V14.01,2013-07-25 04:47:00,
2013-07-24 21:52:00,63.5,57.2,30.03,ESE,109,1.0,0.0,80,0.00,,CLR,0.00,VWS V14.01,2013-07-25 04:52:00,
2013-07-24 21:57:00,63.3,57.4,30.03,ESE,110,0.0,0.0,81,0.00,,CLR,0.00,VWS V14.01,2013-07-25 04:57:00,
2013-07-24 22:02:00,63.0,57.1,30.03,East,99,1.0,0.0,81,0.00,,CLR,0.00,VWS V14.01,2013-07-25 05:02:00,
2013-07-24 22:07:00,62.9,57.3,30.03,ESE,108,0.0,0.0,82,0.00,,CLR,0.00,VWS V14.01,2013-07-25 05:07:00,
2013-07-24 22:12:00,62.6,57.0,30.03,ENE,67,1.0,0.0,82,0.00,,CLR,0.00,VWS V14.01,2013-07-25 05:12:00,
2013-07-24 22:17:00,62.3,56.7,30.03,SSE,150,0.0,0.0,82,0.00,,CLR,0.00,VWS V14.01,2013-07-25 05:17:00,
2013-07-24 22:22:00,62.0,56.8,30.03,ESE,114,0.0,0.0,83,0.00,,CLR,0.00,VWS V14.01,2013-07-25 05:22:00,
2013-07-24 22:27:00,61.8,56.6,30.03,SE,141,0.0,0.0,83,0.00,,CLR,0.00,VWS V14.01,2013-07-25 05:27:00,
2013-07-24 22:32:00,61.6,56.7,30.04,ESE,113,0.0,0.0,84,0.00,,CLR,0.00,VWS V14.01,2013-07-25 05:32:00,
2013-07-24 22:37:00,61.3,56.4,30.04,South,182,1.0,0.0,84,0.00,,CLR,0.00,VWS V14.01,2013-07-25 05:37:00,
2013-07-24 22:42:00,61.2,56.3,30.03,ESE,119,0.0,0.0,84,0.00,,CLR,0.00,VWS V14.01,2013-07-25 05:42:00,
2013-07-24 22:47:00,61.0,56.1,30.04,East,101,0.0,0.0,84,0.00,,CLR,0.00,VWS V14.01,2013-07-25 05:47:00,
2013-07-24 22:52:00,61.0,56.1,30.04,ESE,116,0.0,0.0,84,0.00,,CLR,0.00,VWS V14.01,2013-07-25 05:52:00,
2013-07-24 22:57:00,61.0,56.1,30.04,ESE,110,6.0,0.0,84,0.00,,CLR,0.00,VWS V14.01,2013-07-25 05:57:00,
2013-07-24 23:02:00,60.9,56.0,30.04,SE,134,2.0,0.0,84,0.00,,CLR,0.00,VWS V14.01,2013-07-25 06:02:00,
2013-07-24 23:07:00,60.8,56.3,30.04,ESE,119,1.0,0.0,85,0.00,,CLR,0.00,VWS V14.01,2013-07-25 06:07:00,
2013-07-24 23:12:00,60.6,56.1,30.04,ESE,105,0.0,0.0,85,0.00,,CLR,0.00,VWS V14.01,2013-07-25 06:12:00,
2013-07-24 23:17:00,60.3,55.8,30.04,SSE,148,0.0,0.0,85,0.00,,CLR,0.00,VWS V14.01,2013-07-25 06:17:00,
2013-07-24 23:22:00,59.9,55.7,30.04,SE,138,1.0,0.0,86,0.00,,CLR,0.00,VWS V14.01,2013-07-25 06:22:00,
2013-07-24 23:27:00,59.7,55.8,30.05,East,101,0.0,0.0,87,0.00,,CLR,0.00,VWS V14.01,2013-07-25 06:27:00,
2013-07-24 23:32:00,59.4,55.5,30.04,ESE,116,2.0,0.0,87,0.00,,CLR,0.00,VWS V14.01,2013-07-25 06:32:00,
2013-07-24 23:37:00,59.3,55.8,30.05,ESE,115,1.0,0.0,88,0.00,,CLR,0.00,VWS V14.01,2013-07-25 06:37:00,
2013-07-24 23:42:00,59.2,55.3,30.05,ESE,121,0.0,0.0,87,0.00,,CLR,0.00,VWS V14.01,2013-07-25 06:42:00,
2013-07-24 23:47:00,58.8,55.3,30.05,SE,136,0.0,0.0,88,0.00,,CLR,0.00,VWS V14.01,2013-07-25 06:47:00,
2013-07-24 23:52:00,58.4,54.9,30.05,SE,136,0.0,0.0,88,0.00,,CLR,0.00,VWS V14.01,2013-07-25 06:52:00,
2013-07-24 23:57:00,58.1,54.6,30.05,SE,134,0.0,0.0,88,0.00,,CLR,0.00,VWS V14.01,2013-07-25 06:57:00,